createdAt,value
2018-09-14T00:00:48.963Z,82.10
2018-09-14T00:03:19.639Z,83.52
2018-09-14T00:05:50.150Z,84.18
2018-09-14T00:08:20.818Z,85.12
2018-09-14T00:10:51.372Z,86.28
2018-09-14T00:13:21.921Z,86.82
2018-09-14T00:15:52.452Z,87.47
2018-09-14T00:18:22.994Z,87.62
2018-09-14T00:20:53.469Z,87.96
2018-09-14T00:23:24.011Z,88.20
2018-09-14T00:25:54.376Z,87.89
2018-09-14T00:28:24.946Z,87.77
2018-09-14T00:30:55.584Z,87.57
2018-09-14T00:33:25.958Z,87.39
2018-09-14T00:35:56.524Z,87.37
2018-09-14T00:38:27.740Z,86.55
2018-09-14T00:40:58.337Z,86.15
2018-09-14T00:43:28.908Z,85.91
2018-09-14T00:45:59.392Z,85.22
2018-09-14T00:48:29.953Z,84.63
2018-09-14T00:51:00.552Z,83.79
2018-09-14T00:53:30.957Z,83.32
2018-09-14T00:56:01.473Z,81.78
2018-09-14T00:58:32.021Z,80.95
2018-09-14T01:01:02.645Z,81.33
2018-09-14T01:03:33.178Z,82.60
2018-09-14T01:06:03.802Z,85.64
2018-09-14T01:08:34.388Z,86.25
2018-09-14T01:11:05.911Z,85.64
2018-09-14T01:13:36.418Z,85.25
2018-09-14T01:16:07.404Z,82.57
2018-09-14T01:18:38.934Z,81.52
2018-09-14T01:21:09.622Z,81.13
2018-09-14T01:23:40.129Z,80.14
2018-09-14T01:26:10.642Z,80.23
2018-09-14T01:28:41.264Z,79.68
2018-09-14T01:31:11.845Z,79.31
2018-09-14T01:33:42.399Z,80.15
2018-09-14T01:36:13.286Z,81.36
2018-09-14T01:38:43.626Z,81.61
2018-09-14T01:41:14.184Z,82.43
2018-09-14T01:43:44.684Z,83.16
2018-09-14T01:46:15.099Z,84.41
2018-09-14T01:48:45.685Z,86.71
2018-09-14T01:51:16.195Z,87.69
2018-09-14T01:53:46.639Z,88.97
2018-09-14T01:56:17.247Z,89.69
2018-09-14T01:58:47.657Z,90.60
2018-09-14T02:01:18.263Z,90.93
2018-09-14T02:03:48.938Z,91.04
2018-09-14T02:06:19.663Z,90.59
2018-09-14T02:08:50.068Z,90.57
2018-09-14T02:11:20.614Z,88.17
2018-09-14T02:13:51.119Z,88.38
2018-09-14T02:16:21.636Z,89.05
2018-09-14T02:18:52.192Z,89.25
2018-09-14T02:21:22.691Z,89.24
2018-09-14T02:23:53.246Z,89.66
2018-09-14T02:26:23.729Z,90.28
2018-09-14T02:28:54.315Z,90.87
2018-09-14T02:31:24.768Z,91.41
2018-09-14T02:33:55.271Z,91.53
2018-09-14T02:36:25.712Z,91.45
2018-09-14T02:38:56.101Z,92.07
2018-09-14T02:41:26.494Z,90.78
2018-09-14T02:43:56.898Z,90.57
2018-09-14T02:46:27.427Z,91.05
2018-09-14T02:48:57.944Z,90.92
2018-09-14T02:51:28.693Z,91.27
2018-09-14T02:53:59.894Z,91.66
2018-09-14T02:56:30.324Z,92.01
2018-09-14T02:59:01.528Z,92.04
2018-09-14T03:01:31.955Z,90.58
2018-09-14T03:04:02.400Z,89.74
2018-09-14T03:06:34.066Z,88.25
2018-09-14T03:09:05.486Z,88.35
2018-09-14T03:11:36.019Z,89.03
2018-09-14T03:14:06.897Z,88.05
2018-09-14T03:16:37.425Z,87.06
2018-09-14T03:19:07.944Z,86.84
2018-09-14T03:21:38.590Z,87.28
2018-09-14T03:24:09.226Z,88.09
2018-09-14T03:26:40.125Z,87.47
2018-09-14T03:29:10.621Z,88.43
2018-09-14T03:31:41.125Z,88.39
2018-09-14T03:34:11.473Z,88.73
2018-09-14T03:36:42.144Z,88.81
2018-09-14T03:39:12.757Z,89.19
2018-09-14T03:41:43.205Z,89.67
2018-09-14T03:44:13.638Z,91.09
2018-09-14T03:46:44.256Z,91.67
2018-09-14T03:49:14.806Z,92.13
2018-09-14T03:51:45.391Z,91.82
2018-09-14T03:54:15.897Z,92.71
2018-09-14T03:56:46.485Z,93.14
2018-09-14T03:59:17.042Z,93.64
2018-09-14T04:01:47.600Z,94.48
2018-09-14T04:04:18.078Z,94.85
2018-09-14T04:06:48.558Z,94.79
2018-09-14T04:09:19.535Z,95.14
2018-09-14T04:11:50.015Z,94.67
2018-09-14T04:14:20.522Z,94.93
2018-09-14T04:16:51.129Z,95.49
2018-09-14T04:19:21.719Z,96.00
2018-09-14T04:21:52.255Z,96.49
2018-09-14T04:24:23.361Z,96.80
2018-09-14T04:26:53.701Z,96.98
2018-09-14T04:29:24.030Z,97.83
2018-09-14T04:31:54.699Z,98.26
2018-09-14T04:34:26.080Z,98.45
2018-09-14T04:36:56.644Z,98.53
2018-09-14T04:39:28.082Z,99.06
2018-09-14T04:41:58.633Z,98.77
2018-09-14T04:44:29.758Z,98.71
2018-09-14T04:47:00.226Z,98.84
2018-09-14T04:49:30.888Z,99.04
2018-09-14T04:52:01.549Z,98.94
2018-09-14T04:54:32.066Z,99.03
2018-09-14T04:57:02.601Z,98.91
2018-09-14T04:59:33.996Z,98.90
2018-09-14T05:02:04.570Z,99.63
2018-09-14T05:04:35.362Z,99.99
2018-09-14T05:07:05.991Z,100.00
2018-09-14T05:09:36.708Z,100.00
2018-09-14T05:12:07.690Z,100.00
2018-09-14T05:14:38.209Z,100.00
2018-09-14T05:17:08.744Z,99.80
2018-09-14T05:19:39.373Z,99.48
2018-09-14T05:22:09.905Z,100.00
2018-09-14T05:24:40.550Z,94.86
2018-09-14T05:27:11.494Z,91.04
2018-09-14T05:29:42.012Z,87.82
2018-09-14T05:32:12.583Z,86.51
2018-09-14T05:34:42.879Z,85.00
2018-09-14T05:37:13.360Z,81.85
2018-09-14T05:39:43.828Z,81.17
2018-09-14T05:42:14.170Z,78.88
2018-09-14T05:44:44.513Z,77.81
2018-09-14T05:47:15.019Z,75.82
2018-09-14T05:49:45.384Z,74.10
2018-09-14T05:52:15.923Z,72.92
2018-09-14T05:54:46.602Z,70.61
2018-09-14T05:57:17.203Z,69.08
2018-09-14T05:59:47.759Z,67.87
2018-09-14T06:02:18.810Z,66.29
2018-09-14T06:04:49.662Z,65.40
2018-09-14T06:07:20.327Z,63.92
2018-09-14T06:09:51.071Z,63.74
2018-09-14T06:12:21.553Z,62.13
2018-09-14T06:14:52.414Z,60.75
2018-09-14T06:17:24.144Z,59.36
2018-09-14T06:19:56.249Z,57.80
2018-09-14T06:22:27.705Z,56.58
2018-09-14T06:24:59.642Z,55.52
2018-09-14T06:27:30.322Z,56.01
2018-09-14T06:30:02.200Z,54.14
2018-09-14T06:32:32.893Z,54.03
2018-09-14T06:35:04.588Z,53.14
2018-09-14T06:37:35.796Z,52.89
2018-09-14T06:40:06.677Z,51.87
2018-09-14T06:42:37.343Z,51.43
2018-09-14T06:45:08.227Z,51.32
2018-09-14T06:47:39.225Z,50.32
2018-09-14T06:50:09.797Z,50.35
2018-09-14T06:52:40.667Z,49.15
2018-09-14T06:55:12.551Z,49.14
2018-09-14T06:57:44.067Z,47.39
2018-09-14T07:00:15.058Z,46.97
2018-09-14T07:02:47.875Z,46.36
2018-09-14T07:05:18.489Z,45.80
2018-09-14T07:07:49.138Z,47.00
2018-09-14T07:10:19.948Z,46.23
2018-09-14T07:12:50.683Z,46.15
2018-09-14T07:15:21.375Z,44.73
2018-09-14T07:17:52.164Z,43.78
2018-09-14T07:20:22.999Z,44.82
2018-09-14T07:22:54.312Z,42.93
2018-09-14T07:25:25.735Z,42.17
2018-09-14T07:27:56.653Z,40.53
2018-09-14T07:30:27.317Z,40.68
2018-09-14T07:32:58.574Z,40.07
2018-09-14T07:35:30.371Z,40.00
2018-09-14T07:38:01.100Z,39.54
2018-09-14T07:40:32.114Z,39.02
2018-09-14T07:43:02.766Z,38.05
2018-09-14T07:45:34.620Z,37.48
2018-09-14T07:48:05.430Z,37.24
2018-09-14T07:50:36.305Z,37.35
2018-09-14T07:53:08.029Z,38.99
2018-09-14T07:55:40.063Z,38.74
2018-09-14T07:58:10.829Z,37.66
2018-09-14T08:00:43.699Z,38.26
2018-09-14T08:03:14.830Z,38.81
2018-09-14T08:05:46.658Z,37.43
2018-09-14T08:08:18.832Z,36.57
2018-09-14T08:10:52.802Z,35.09
2018-09-14T08:13:24.177Z,33.51
2018-09-14T08:15:55.217Z,34.26
2018-09-14T08:18:27.398Z,33.79
2018-09-14T08:20:59.337Z,32.55
2018-09-14T08:23:30.291Z,32.11
2018-09-14T08:26:01.401Z,32.96
2018-09-14T08:28:32.803Z,33.86
2018-09-14T08:31:03.512Z,32.08
2018-09-14T08:33:34.294Z,31.51
2018-09-14T08:36:05.138Z,32.16
2018-09-14T08:38:37.543Z,31.76
2018-09-14T08:41:08.916Z,31.77
2018-09-14T08:43:39.543Z,31.81
2018-09-14T08:46:10.343Z,32.08
2018-09-14T08:48:41.481Z,32.51
2018-09-14T08:51:12.483Z,32.29
2018-09-14T08:53:44.882Z,32.26
2018-09-14T08:56:15.567Z,32.04
2018-09-14T08:58:47.520Z,32.36
2018-09-14T09:01:18.371Z,31.71
2018-09-14T09:03:49.336Z,30.10
2018-09-14T09:06:19.836Z,30.83
2018-09-14T09:08:50.479Z,30.71
2018-09-14T09:11:21.897Z,30.30
2018-09-14T09:13:53.077Z,30.35
2018-09-14T09:16:23.702Z,31.43
2018-09-14T09:18:56.559Z,30.70
2018-09-14T09:21:27.345Z,30.45
2018-09-14T09:23:58.723Z,29.11
2018-09-14T09:26:29.592Z,28.13
2018-09-14T09:29:00.163Z,27.47
2018-09-14T09:31:30.974Z,26.72
2018-09-14T09:34:01.652Z,25.75
2018-09-14T09:36:32.334Z,27.53
2018-09-14T09:39:03.577Z,25.87
2018-09-14T09:41:34.365Z,25.64
2018-09-14T09:44:05.125Z,25.59
2018-09-14T09:46:35.606Z,24.72
2018-09-14T09:49:06.214Z,24.51
2018-09-14T09:51:36.963Z,23.20
2018-09-14T09:54:07.501Z,22.63
2018-09-14T09:56:38.691Z,21.76
2018-09-14T09:59:09.295Z,21.72
2018-09-14T10:01:47.035Z,21.71
2018-09-14T10:04:23.333Z,22.43
2018-09-14T10:06:54.167Z,23.31
2018-09-14T10:09:24.865Z,23.72
2018-09-14T10:11:55.563Z,25.20
2018-09-14T10:14:26.199Z,23.55
2018-09-14T10:16:56.909Z,23.27
2018-09-14T10:19:27.438Z,23.19
2018-09-14T10:21:58.001Z,22.95
2018-09-14T10:24:28.491Z,22.24
2018-09-14T10:26:59.210Z,21.37
2018-09-14T10:29:30.199Z,21.19
2018-09-14T10:32:01.107Z,21.07
2018-09-14T10:34:31.634Z,20.56
2018-09-14T10:37:02.584Z,20.82
2018-09-14T10:39:33.255Z,20.36
2018-09-14T10:42:04.067Z,19.52
2018-09-14T10:44:34.800Z,18.60
2018-09-14T10:47:05.855Z,20.97
2018-09-14T10:49:37.414Z,21.24
2018-09-14T10:52:07.999Z,19.95
2018-09-14T10:54:39.151Z,18.55
2018-09-14T10:57:09.736Z,18.19
2018-09-14T10:59:40.375Z,19.96
2018-09-14T11:02:11.180Z,19.93
2018-09-14T11:04:41.812Z,19.86
2018-09-14T11:07:12.428Z,19.49
2018-09-14T11:09:43.686Z,19.36
2018-09-14T11:12:14.226Z,18.92
2018-09-14T11:14:45.628Z,18.93
2018-09-14T11:17:16.440Z,18.62
2018-09-14T11:19:47.006Z,18.64
2018-09-14T11:22:17.683Z,18.67
2018-09-14T11:24:48.619Z,17.06
2018-09-14T11:27:19.153Z,16.64
2018-09-14T11:29:51.268Z,16.89
2018-09-14T11:32:21.973Z,17.27
2018-09-14T11:34:52.901Z,16.72
2018-09-14T11:37:23.769Z,16.23
2018-09-14T11:39:55.068Z,15.95
2018-09-14T11:42:27.002Z,16.42
2018-09-14T11:44:57.832Z,16.37
2018-09-14T11:47:28.558Z,17.46
2018-09-14T11:49:59.123Z,18.78
2018-09-14T11:52:29.575Z,19.52
2018-09-14T11:55:00.312Z,21.47
2018-09-14T11:57:31.142Z,22.39
2018-09-14T12:00:01.849Z,25.21
2018-09-14T12:02:33.796Z,26.32
2018-09-14T12:05:04.901Z,26.29
2018-09-14T12:07:39.966Z,25.81
2018-09-14T12:10:11.780Z,23.64
2018-09-14T12:12:43.111Z,22.50
2018-09-14T12:15:13.802Z,21.32
2018-09-14T12:17:45.215Z,20.27
2018-09-14T12:20:16.012Z,20.39
2018-09-14T12:22:47.385Z,19.46
2018-09-14T12:25:18.294Z,18.96
2018-09-14T12:27:49.345Z,17.04
2018-09-14T12:30:20.553Z,17.21
2018-09-14T12:32:51.120Z,17.38
2018-09-14T12:35:22.488Z,17.42
2018-09-14T12:37:53.135Z,17.43
2018-09-14T12:40:24.185Z,19.30
2018-09-14T12:42:58.076Z,19.81
2018-09-14T12:45:37.181Z,19.29
2018-09-14T12:48:08.540Z,19.52
2018-09-14T12:50:39.697Z,18.40
2018-09-14T12:53:10.498Z,18.08
2018-09-14T12:55:44.063Z,17.51
2018-09-14T12:58:17.678Z,17.80
2018-09-14T13:00:53.918Z,17.95
2018-09-14T13:03:25.421Z,17.94
2018-09-14T13:05:56.358Z,18.19
2018-09-14T13:08:27.422Z,19.61
2018-09-14T13:10:58.164Z,21.49
2018-09-14T13:13:29.690Z,23.31
2018-09-14T13:16:00.596Z,25.15
2018-09-14T13:18:31.202Z,26.71
2018-09-14T13:21:01.792Z,28.45
2018-09-14T13:23:32.837Z,28.74
2018-09-14T13:26:04.147Z,30.38
2018-09-14T13:28:35.041Z,30.99
2018-09-14T13:31:07.429Z,31.46
2018-09-14T13:33:39.421Z,34.25
2018-09-14T13:36:10.573Z,34.93
2018-09-14T13:38:41.941Z,35.79
2018-09-14T13:41:13.297Z,37.54
2018-09-14T13:43:44.574Z,37.33
2018-09-14T13:46:15.815Z,37.93
2018-09-14T13:48:46.654Z,37.03
2018-09-14T13:51:18.438Z,37.01
2018-09-14T13:53:49.247Z,35.59
2018-09-14T13:56:20.506Z,35.68
2018-09-14T13:59:02.613Z,36.00
2018-09-14T14:01:36.374Z,37.22
2018-09-14T14:04:07.533Z,36.22
2018-09-14T14:06:39.534Z,36.45
2018-09-14T14:09:16.549Z,35.92
2018-09-14T14:11:47.434Z,33.25
2018-09-14T14:14:24.532Z,32.79
2018-09-14T14:17:06.047Z,33.73
2018-09-14T14:19:38.718Z,32.44
2018-09-14T14:22:14.434Z,32.38
2018-09-14T14:24:45.754Z,31.62
2018-09-14T14:27:16.675Z,31.53
2018-09-14T14:29:47.417Z,30.09
2018-09-14T14:32:19.328Z,30.22
2018-09-14T14:34:50.624Z,30.09
2018-09-14T14:37:22.005Z,28.81
2018-09-14T14:39:53.454Z,27.27
2018-09-14T14:42:24.979Z,29.33
2018-09-14T14:44:58.635Z,30.84
2018-09-14T14:47:29.411Z,30.87
2018-09-14T14:50:02.233Z,29.83
2018-09-14T14:52:34.878Z,28.58
2018-09-14T14:55:06.937Z,27.45
2018-09-14T14:57:37.855Z,27.62
2018-09-14T15:00:09.814Z,27.44
2018-09-14T15:02:41.024Z,28.32
2018-09-14T15:05:12.646Z,27.62
2018-09-14T15:07:44.488Z,28.87
2018-09-14T15:10:17.175Z,29.95
2018-09-14T15:12:50.538Z,29.87
2018-09-14T15:15:22.162Z,29.90
2018-09-14T15:17:52.939Z,30.26
2018-09-14T15:20:24.009Z,29.84
2018-09-14T15:22:54.806Z,29.31
2018-09-14T15:25:25.971Z,29.15
2018-09-14T15:27:57.524Z,29.50
2018-09-14T15:30:28.918Z,30.88
2018-09-14T15:32:59.616Z,30.75
2018-09-14T15:35:30.131Z,30.70
2018-09-14T15:38:00.829Z,31.75
2018-09-14T15:40:32.009Z,34.56
2018-09-14T15:43:03.297Z,34.68
2018-09-14T15:45:34.073Z,34.11
2018-09-14T15:48:04.825Z,34.64
2018-09-14T15:50:36.570Z,33.50
2018-09-14T15:53:08.034Z,33.24
2018-09-14T15:55:38.624Z,32.89
2018-09-14T15:58:10.745Z,32.86
2018-09-14T16:00:41.559Z,33.31
2018-09-14T16:03:12.476Z,33.49
2018-09-14T16:05:43.384Z,35.41
2018-09-14T16:08:14.771Z,36.54
2018-09-14T16:10:45.962Z,36.38
2018-09-14T16:13:16.854Z,35.90
2018-09-14T16:15:47.907Z,35.84
2018-09-14T16:18:18.957Z,35.29
2018-09-14T16:20:50.814Z,36.07
2018-09-14T16:23:22.274Z,37.05
2018-09-14T16:25:53.227Z,36.66
2018-09-14T16:28:24.602Z,36.28
2018-09-14T16:30:55.534Z,36.88
2018-09-14T16:33:26.881Z,37.31
2018-09-14T16:35:57.689Z,36.34
2018-09-14T16:38:28.418Z,37.89
2018-09-14T16:41:00.718Z,37.11
2018-09-14T16:43:33.878Z,37.86
2018-09-14T16:46:06.376Z,39.84
2018-09-14T16:48:37.088Z,39.98
2018-09-14T16:51:07.955Z,41.08
2018-09-14T16:53:40.329Z,41.46
2018-09-14T16:56:12.345Z,42.05
2018-09-14T16:58:43.824Z,42.66
2018-09-14T17:01:15.785Z,43.11
2018-09-14T17:03:46.930Z,43.22
2018-09-14T17:06:17.815Z,43.36
2018-09-14T17:08:48.709Z,45.03
2018-09-14T17:11:19.397Z,46.80
2018-09-14T17:13:50.066Z,47.23
2018-09-14T17:16:21.458Z,47.99
2018-09-14T17:18:52.457Z,48.01
2018-09-14T17:21:23.461Z,48.77
2018-09-14T17:23:54.196Z,49.83
2018-09-14T17:26:25.781Z,50.27
2018-09-14T17:29:06.216Z,51.24
2018-09-14T17:31:39.384Z,52.00
2018-09-14T17:34:12.399Z,52.77
2018-09-14T17:36:44.951Z,53.71
2018-09-14T17:39:17.734Z,53.17
2018-09-14T17:41:50.249Z,53.25
2018-09-14T17:44:21.487Z,54.06
2018-09-14T17:46:53.044Z,54.49
2018-09-14T17:49:24.031Z,55.20
2018-09-14T17:51:55.217Z,56.43
2018-09-14T17:54:27.366Z,56.59
2018-09-14T17:56:58.288Z,57.08
2018-09-14T17:59:29.701Z,58.58
2018-09-14T18:02:02.085Z,58.35
2018-09-14T18:04:33.177Z,58.56
2018-09-14T18:07:04.975Z,59.07
2018-09-14T18:09:36.326Z,59.58
2018-09-14T18:12:08.019Z,59.89
2018-09-14T18:14:39.499Z,60.34
2018-09-14T18:17:10.769Z,60.36
2018-09-14T18:19:42.037Z,60.98
2018-09-14T18:22:12.772Z,61.79
2018-09-14T18:24:43.927Z,62.36
2018-09-14T18:27:15.137Z,62.98
2018-09-14T18:29:46.711Z,63.30
2018-09-14T18:32:17.596Z,63.52
2018-09-14T18:34:49.160Z,63.42
2018-09-14T18:37:19.798Z,63.45
2018-09-14T18:39:50.981Z,64.36
2018-09-14T18:42:21.805Z,64.19
2018-09-14T18:44:53.466Z,64.79
2018-09-14T18:47:24.893Z,64.80
2018-09-14T18:49:56.728Z,64.62
2018-09-14T18:52:27.569Z,65.31
2018-09-14T18:54:58.753Z,65.51
2018-09-14T18:57:29.532Z,66.04
2018-09-14T19:00:00.987Z,66.36
2018-09-14T19:02:32.429Z,66.73
2018-09-14T19:05:03.532Z,66.65
2018-09-14T19:07:35.504Z,67.77
2018-09-14T19:10:07.262Z,67.80
2018-09-14T19:12:39.618Z,67.91
2018-09-14T19:15:10.749Z,67.91
2018-09-14T19:17:41.936Z,67.94
2018-09-14T19:20:13.610Z,68.85
2018-09-14T19:22:45.067Z,69.01
2018-09-14T19:25:16.388Z,68.90
2018-09-14T19:27:47.679Z,69.30
2018-09-14T19:30:21.369Z,69.66
2018-09-14T19:32:53.202Z,69.63
2018-09-14T19:35:31.355Z,70.28
2018-09-14T19:38:04.486Z,70.37
2018-09-14T19:40:36.056Z,70.45
2018-09-14T19:43:07.773Z,70.74
2018-09-14T19:45:40.457Z,71.10
2018-09-14T19:48:11.867Z,70.96
2018-09-14T19:50:42.828Z,70.87
2018-09-14T19:53:13.952Z,71.16
2018-09-14T19:55:47.546Z,71.08
2018-09-14T19:58:20.744Z,71.30
2018-09-14T20:00:53.003Z,71.15
2018-09-14T20:03:24.036Z,71.86
2018-09-14T20:05:55.475Z,72.22
2018-09-14T20:08:26.242Z,72.27
2018-09-14T20:10:57.779Z,72.36
2018-09-14T20:13:28.577Z,72.20
2018-09-14T20:16:01.517Z,72.98
2018-09-14T20:18:33.781Z,73.37
2018-09-14T20:21:07.436Z,73.32
2018-09-14T20:23:40.221Z,73.75
2018-09-14T20:26:13.066Z,74.25
2018-09-14T20:28:47.697Z,74.63
2018-09-14T20:31:20.591Z,75.28
2018-09-14T20:33:55.681Z,75.59
2018-09-14T20:36:30.166Z,75.50
2018-09-14T20:39:06.184Z,75.28
2018-09-14T20:41:38.200Z,75.90
2018-09-14T20:44:12.480Z,75.85
2018-09-14T20:46:43.490Z,75.79
2018-09-14T20:49:15.497Z,76.12
2018-09-14T20:51:48.874Z,76.92
2018-09-14T20:54:20.177Z,76.37
2018-09-14T20:56:52.014Z,77.16
2018-09-14T20:59:23.634Z,76.63
2018-09-14T21:01:54.741Z,77.10
2018-09-14T21:04:25.330Z,76.92
2018-09-14T21:06:56.776Z,77.48
2018-09-14T21:09:27.908Z,78.15
2018-09-14T21:11:58.624Z,78.69
2018-09-14T21:14:29.665Z,78.75
2018-09-14T21:17:01.154Z,78.63
2018-09-14T21:19:32.379Z,78.93
2018-09-14T21:22:03.010Z,78.84
2018-09-14T21:24:33.855Z,79.57
2018-09-14T21:27:04.582Z,79.85
2018-09-14T21:29:36.096Z,80.19
2018-09-14T21:32:11.594Z,79.71
2018-09-14T21:34:42.419Z,79.95
2018-09-14T21:37:13.601Z,79.96
2018-09-14T21:39:44.692Z,80.33
2018-09-14T21:42:15.824Z,80.73
2018-09-14T21:44:48.317Z,81.01
2018-09-14T21:47:20.551Z,80.87
2018-09-14T21:49:51.936Z,81.20
2018-09-14T21:52:23.890Z,81.52
2018-09-14T21:54:55.387Z,82.16
2018-09-14T21:57:26.100Z,82.51
2018-09-14T21:59:57.489Z,82.74
2018-09-14T22:02:28.430Z,82.15
2018-09-14T22:04:59.516Z,82.44
2018-09-14T22:07:31.276Z,82.30
2018-09-14T22:10:02.108Z,82.46
2018-09-14T22:12:33.448Z,82.22
2018-09-14T22:15:04.130Z,82.52
2018-09-14T22:17:36.639Z,82.73
2018-09-14T22:20:07.907Z,82.69
2018-09-14T22:22:38.650Z,83.19
2018-09-14T22:25:09.621Z,83.19
2018-09-14T22:27:40.272Z,83.87
2018-09-14T22:30:11.091Z,83.95
2018-09-14T22:32:41.738Z,84.54
2018-09-14T22:35:12.512Z,84.85
2018-09-14T22:37:43.593Z,84.77
2018-09-14T22:40:14.274Z,85.38
2018-09-14T22:42:44.985Z,85.37
2018-09-14T22:45:15.602Z,85.28
2018-09-14T22:47:46.591Z,85.13
2018-09-14T22:50:17.392Z,85.34
2018-09-14T22:52:48.058Z,85.47
2018-09-14T22:55:19.011Z,86.17
2018-09-14T22:57:49.951Z,86.25
2018-09-14T23:00:25.303Z,86.79
2018-09-14T23:02:56.112Z,87.38
2018-09-14T23:05:26.642Z,87.17
2018-09-14T23:07:57.238Z,87.11
2018-09-14T23:10:27.826Z,87.77
2018-09-14T23:12:58.449Z,87.62
2018-09-14T23:15:29.381Z,88.21
2018-09-14T23:17:59.846Z,87.96
2018-09-14T23:20:30.895Z,87.32
2018-09-14T23:23:01.255Z,86.99
2018-09-14T23:25:31.821Z,87.87
2018-09-14T23:28:02.571Z,88.40
2018-09-14T23:30:33.176Z,88.22
2018-09-14T23:33:03.834Z,88.52
2018-09-14T23:35:34.411Z,88.77
2018-09-14T23:38:05.050Z,88.12
2018-09-14T23:40:35.775Z,88.11
2018-09-14T23:43:06.424Z,88.43
2018-09-14T23:45:36.984Z,88.71
2018-09-14T23:48:07.774Z,89.39
2018-09-14T23:50:38.273Z,89.92
2018-09-14T23:53:08.889Z,90.64
2018-09-14T23:55:39.478Z,91.08
2018-09-14T23:58:10.162Z,91.36
